Watertown, CT

7:11 PM EST on January 26, 2015 (GMT -0500)
Meriden Markham Municipal | Change Station
CLOSE
Current Station
Airport
Location: Meriden,
Elevation: 102 ft
Nearby Weather Stations
Active Advisory: Blizzard Warning

Elev 102 ft 41.51 °N, 72.83 °W | Updated 4 minutes ago

Snow
Snow
22 °F
Feels Like 9 °F
N
14
Wind Variable Wind from North
Gusts 24 mph

Today
High -- | Low -- °F
--% Chance of Precip.
Yesterday
High -- | Low -- °F
Precip. -- in
7:09 AM 5:00 PM
Waxing Crescent, 48% visible
Pressure 29.92 in
Visibility 0.8 miles
Clouds
Windchill 9 °F
Dew Point 17 °F
Humidity 82%
Rainfall 0.03 in
Snow Depth Not available.
UV Not available.
Pollen .10 out of 12
Air Quality Not available.
Flu Activity Not available.
SPECI KMMK 270007Z AUTO 01012G21KT 3/4SM -SN VV014 M06/M08 A2992 RMK AO2 P0000 T10561083 TSNO

More Conditions Fewer Conditions

Pressure 29.92 in
Visibility 0.8 miles
Clouds
Windchill 9 °F
Dew Point 17 °F
Humidity 82%
Rainfall 0.03 in
Snow Depth Not available.
UV Not available.
Pollen .10 out of 12
Air Quality Not available.
Flu Activity Not available.
SPECI KMMK 270007Z AUTO 01012G21KT 3/4SM -SN VV014 M06/M08 A2992 RMK AO2 P0000 T10561083 TSNO

More Conditions Fewer Conditions

10-Day Weather Forecast

Almanac

Astronomy

Jan. 26, 2015 Rise Set
Actual Time
Civil Twilight
Nautical Twilight
Astronomical Twilight
Moon
Length of Visible Light
Length of Day
Tomorrow will be .
, % of the Moon is Illuminated

Today's Extremes

State Highs State Lows

Community

WunderPhotos

Upload Photos

1,790,420 photos uploaded!

WunderBlogs® & News

Nearby

Air Quality

  Air Quality AQ Index Pollutant
Not available.

Snow Depth

Station Depth Elevation

Earthquake Activity

City Distance Mag. Time & Date
Minimum magnitude displayed is 2.5.

Coastal Water Temperatures

Place Temperature

Nearby Weather Stations